Time;durP1;ratioP1;P1;durP2;ratioP2;P2;SDS_P1;SDS_P2;PMS_P1;PMS_P2;Temp;Humidity;BMP_temperature;BMP_pressure;BME280_temperature;BME280_humidity;BME280_pressure;Samples;Min_cycle;Max_cycle;Signal;HPM_P1;HPM_P2
2021/07/25 00:00:40;;;;;;;11.60;10.50;;;18.90;99.90;;;;;;5053193;28;20596;-70
2021/07/25 00:03:07;;;;;;;10.60;9.50;;;18.90;99.90;;;;;;5053335;28;20958;-69
2021/07/25 00:05:34;;;;;;;12.27;10.40;;;18.90;99.90;;;;;;5053333;28;21008;-69
2021/07/25 00:08:00;;;;;;;16.23;9.47;;;18.80;99.90;;;;;;5052731;28;20592;-69
2021/07/25 00:10:27;;;;;;;15.20;10.47;;;18.80;99.90;;;;;;5053320;28;21168;-69
2021/07/25 00:12:53;;;;;;;13.70;10.57;;;18.70;99.90;;;;;;5053534;28;20642;-69
2021/07/25 00:15:20;;;;;;;12.07;10.70;;;18.80;99.90;;;;;;5053035;28;20575;-69
2021/07/25 00:17:47;;;;;;;12.47;9.97;;;18.80;99.90;;;;;;5053182;28;20595;-69
2021/07/25 00:20:14;;;;;;;14.00;11.17;;;18.80;99.90;;;;;;5053075;28;20609;-69
2021/07/25 00:22:40;;;;;;;13.33;11.00;;;18.70;99.90;;;;;;5053071;28;20603;-69
2021/07/25 00:25:08;;;;;;;13.50;11.70;;;18.70;99.90;;;;;;5053048;28;20591;-69
2021/07/25 00:27:39;;;;;;;20.30;10.47;;;18.50;99.90;;;;;;5053044;28;20659;-69
2021/07/25 00:30:15;;;;;;;15.53;11.10;;;18.50;99.90;;;;;;5051991;28;20910;-69
2021/07/25 00:32:41;;;;;;;13.97;11.13;;;18.40;99.90;;;;;;5051776;28;21161;-70
2021/07/25 00:35:09;;;;;;;14.10;11.60;;;18.40;99.90;;;;;;5053156;28;21003;-69
2021/07/25 00:37:36;;;;;;;12.30;11.10;;;18.30;99.90;;;;;;5052156;28;20613;-70
2021/07/25 00:40:03;;;;;;;16.00;10.47;;;18.30;99.90;;;;;;5051755;28;20974;-70
2021/07/25 00:42:39;;;;;;;12.23;11.03;;;18.30;99.90;;;;;;5052827;28;20599;-70
2021/07/25 00:45:06;;;;;;;12.67;11.43;;;18.30;99.90;;;;;;5052784;28;20590;-70
2021/07/25 00:47:38;;;;;;;13.50;10.70;;;18.30;99.90;;;;;;5052637;28;20655;-70
2021/07/25 00:50:07;;;;;;;13.37;10.80;;;18.40;99.90;;;;;;5052475;28;20654;-70
2021/07/25 00:52:34;;;;;;;12.40;11.10;;;18.40;99.90;;;;;;5052907;28;20651;-70
2021/07/25 00:55:00;;;;;;;15.33;11.50;;;18.40;99.90;;;;;;5052927;28;21129;-70
2021/07/25 00:57:27;;;;;;;14.80;11.20;;;18.40;99.90;;;;;;5052891;28;20600;-70
2021/07/25 00:59:53;;;;;;;11.40;10.30;;;18.40;99.90;;;;;;5052782;28;20599;-70
2021/07/25 01:02:20;;;;;;;13.07;11.50;;;18.50;99.90;;;;;;5052130;28;20761;-69
2021/07/25 01:05:06;;;;;;;13.33;11.90;;;18.50;99.90;;;;;;5052934;28;20611;-70
2021/07/25 01:07:54;;;;;;;16.27;10.00;;;18.40;99.90;;;;;;5052707;28;20651;-68
2021/07/25 01:10:29;;;;;;;14.17;10.47;;;18.50;99.90;;;;;;5052712;28;20544;-68
2021/07/25 01:13:00;;;;;;;14.30;11.50;;;18.40;99.90;;;;;;5052753;28;20559;-68
2021/07/25 01:15:29;;;;;;;12.93;10.27;;;18.40;99.90;;;;;;5052573;28;20555;-70
2021/07/25 01:17:58;;;;;;;13.23;10.43;;;18.50;99.90;;;;;;5052517;28;20615;-69
2021/07/25 01:20:24;;;;;;;15.77;10.47;;;18.50;99.90;;;;;;5054084;28;20623;-70
2021/07/25 01:22:53;;;;;;;12.17;10.87;;;18.50;99.90;;;;;;5056291;28;20994;-70
2021/07/25 01:25:22;;;;;;;12.47;11.20;;;18.60;99.90;;;;;;5056288;28;20615;-69
2021/07/25 01:27:58;;;;;;;11.57;10.40;;;18.50;99.90;;;;;;5055843;28;20635;-69
2021/07/25 01:30:28;;;;;;;11.90;10.80;;;18.50;99.90;;;;;;5056456;28;20620;-69
2021/07/25 01:32:59;;;;;;;13.67;11.60;;;18.50;99.90;;;;;;5055982;28;20614;-68
2021/07/25 01:35:26;;;;;;;12.90;11.20;;;18.50;99.90;;;;;;5055875;28;20556;-69
2021/07/25 01:37:53;;;;;;;14.87;11.70;;;18.40;99.90;;;;;;5055951;28;20621;-68
2021/07/25 01:40:22;;;;;;;11.77;10.57;;;18.40;99.90;;;;;;5055714;28;20619;-68
2021/07/25 01:42:49;;;;;;;12.90;9.93;;;18.50;99.90;;;;;;5056078;28;20733;-69
2021/07/25 01:45:16;;;;;;;14.33;10.20;;;18.50;99.90;;;;;;5055482;28;20622;-70
2021/07/25 01:47:42;;;;;;;11.97;10.73;;;18.40;99.90;;;;;;5055766;28;20662;-70
2021/07/25 01:50:09;;;;;;;13.23;10.50;;;18.50;99.90;;;;;;5055825;28;20646;-70
2021/07/25 01:52:36;;;;;;;11.03;10.00;;;18.50;99.90;;;;;;5055829;28;20611;-70
2021/07/25 01:55:03;;;;;;;11.40;10.27;;;18.50;99.90;;;;;;5055348;28;20613;-70
2021/07/25 01:57:30;;;;;;;10.83;9.70;;;18.60;99.90;;;;;;5055782;28;20979;-70
2021/07/25 01:59:56;;;;;;;10.40;9.50;;;18.70;99.90;;;;;;5056059;28;21161;-69
2021/07/25 02:02:22;;;;;;;14.27;10.10;;;18.70;99.90;;;;;;5055416;28;20615;-68
2021/07/25 02:04:48;;;;;;;14.43;9.90;;;18.70;99.90;;;;;;5055639;28;21017;-69
2021/07/25 02:07:15;;;;;;;12.33;9.80;;;18.70;99.90;;;;;;5055521;28;21203;-69
2021/07/25 02:09:41;;;;;;;10.03;9.20;;;18.70;99.90;;;;;;5055294;28;20607;-70
2021/07/25 02:12:09;;;;;;;11.20;10.10;;;18.60;99.90;;;;;;5055532;28;20623;-69
2021/07/25 02:14:38;;;;;;;13.33;10.20;;;18.60;99.90;;;;;;5055711;28;20623;-70
2021/07/25 02:17:05;;;;;;;11.17;9.60;;;18.60;99.90;;;;;;5055051;28;20611;-69
2021/07/25 02:19:31;;;;;;;11.83;10.67;;;18.60;99.90;;;;;;5055382;28;21160;-69
2021/07/25 02:21:58;;;;;;;9.90;9.10;;;18.60;99.90;;;;;;5055399;28;20615;-69
2021/07/25 02:24:25;;;;;;;11.47;9.73;;;18.50;99.90;;;;;;5055261;28;20607;-70
2021/07/25 02:26:52;;;;;;;12.60;10.13;;;18.50;99.90;;;;;;5055074;28;20627;-70
2021/07/25 02:29:18;;;;;;;11.47;9.90;;;18.40;99.90;;;;;;5055031;28;21169;-70
2021/07/25 02:31:45;;;;;;;11.63;9.53;;;18.30;99.90;;;;;;5054707;28;20611;-70
2021/07/25 02:34:12;;;;;;;13.33;10.60;;;18.40;99.90;;;;;;5054906;28;20611;-69
2021/07/25 02:36:39;;;;;;;14.03;10.40;;;18.40;99.90;;;;;;5054863;28;20599;-69
2021/07/25 02:39:06;;;;;;;15.43;10.47;;;18.40;99.90;;;;;;5054600;28;20662;-68
2021/07/25 02:41:32;;;;;;;12.50;9.90;;;18.50;99.90;;;;;;5054977;28;20650;-69
2021/07/25 02:43:59;;;;;;;14.33;10.17;;;18.60;99.90;;;;;;5054804;28;20614;-70
2021/07/25 02:46:25;;;;;;;17.10;9.40;;;18.70;99.90;;;;;;5054800;28;20675;-69
2021/07/25 02:48:51;;;;;;;11.03;9.90;;;18.70;99.90;;;;;;5054503;28;20659;-69
2021/07/25 02:51:18;;;;;;;10.50;9.43;;;18.70;99.90;;;;;;5054458;28;20595;-68
2021/07/25 02:53:44;;;;;;;12.90;9.87;;;18.60;99.90;;;;;;5054743;28;20607;-69
2021/07/25 02:56:10;;;;;;;13.03;11.57;;;18.60;99.90;;;;;;5054668;28;20611;-70
2021/07/25 02:58:37;;;;;;;10.60;9.60;;;18.60;99.90;;;;;;5054832;28;20623;-69
2021/07/25 03:01:13;;;;;;;10.43;9.43;;;18.50;99.90;;;;;;5054175;28;20625;-69
2021/07/25 03:03:40;;;;;;;13.83;9.80;;;18.50;99.90;;;;;;5052992;28;20601;-69
2021/07/25 03:06:06;;;;;;;12.60;9.30;;;18.50;99.90;;;;;;5053807;28;20633;-69
2021/07/25 03:08:34;;;;;;;12.57;9.83;;;18.40;99.90;;;;;;5053547;28;20630;-69
2021/07/25 03:11:01;;;;;;;10.57;9.67;;;18.40;99.90;;;;;;5053782;28;20615;-68
2021/07/25 03:13:28;;;;;;;10.63;9.63;;;18.40;99.90;;;;;;5053801;28;20642;-70
2021/07/25 03:15:54;;;;;;;10.57;9.33;;;18.20;99.90;;;;;;5053952;28;20642;-69
2021/07/25 03:18:21;;;;;;;14.20;10.83;;;18.20;99.90;;;;;;5054272;28;20949;-69
2021/07/25 03:20:47;;;;;;;11.80;9.73;;;18.10;99.90;;;;;;5053966;28;20595;-69
2021/07/25 03:23:13;;;;;;;12.73;10.10;;;18.20;99.90;;;;;;5054064;28;20619;-69
2021/07/25 03:25:39;;;;;;;13.53;9.40;;;18.30;99.90;;;;;;5054230;28;20615;-69
2021/07/25 03:28:06;;;;;;;11.10;10.00;;;18.40;99.90;;;;;;5053647;28;21039;-69
2021/07/25 03:30:32;;;;;;;13.53;10.27;;;18.30;99.90;;;;;;5053546;28;20607;-69
2021/07/25 03:32:58;;;;;;;12.30;8.37;;;18.20;99.90;;;;;;5054039;28;21164;-69
2021/07/25 03:35:25;;;;;;;17.40;9.47;;;18.20;99.90;;;;;;5053867;28;20716;-69
2021/07/25 03:37:52;;;;;;;13.53;10.07;;;18.10;99.90;;;;;;5053823;28;21211;-69
2021/07/25 03:40:18;;;;;;;17.07;10.37;;;18.00;99.90;;;;;;5053681;28;20650;-69
2021/07/25 03:42:44;;;;;;;11.53;9.07;;;18.00;99.90;;;;;;5053184;28;20615;-69
2021/07/25 03:45:11;;;;;;;9.57;8.67;;;18.00;99.90;;;;;;5053769;28;20615;-69
2021/07/25 03:47:38;;;;;;;12.00;9.83;;;18.00;99.90;;;;;;5053487;28;20667;-69
2021/07/25 03:50:05;;;;;;;10.90;9.60;;;18.00;99.90;;;;;;5053446;28;20640;-69
2021/07/25 03:52:34;;;;;;;11.30;10.07;;;18.00;99.90;;;;;;5052109;28;20619;-69
2021/07/25 03:55:02;;;;;;;10.93;9.13;;;17.90;99.90;;;;;;5053851;28;20976;-69
2021/07/25 03:57:28;;;;;;;13.97;8.70;;;17.90;99.90;;;;;;5053661;28;20618;-69
2021/07/25 03:59:55;;;;;;;14.60;10.07;;;17.90;99.90;;;;;;5053444;28;20601;-69
2021/07/25 04:02:21;;;;;;;10.30;9.30;;;17.90;99.90;;;;;;5053683;28;20639;-69
2021/07/25 04:04:47;;;;;;;13.80;9.50;;;17.90;99.90;;;;;;5053545;28;20615;-69
2021/07/25 04:07:13;;;;;;;9.30;8.43;;;17.90;99.90;;;;;;5053217;28;20631;-69
2021/07/25 04:09:40;;;;;;;10.13;9.20;;;17.80;99.90;;;;;;5053169;28;20615;-69
2021/07/25 04:12:06;;;;;;;8.30;7.47;;;17.80;99.90;;;;;;5053261;28;20597;-69
2021/07/25 04:14:33;;;;;;;12.33;8.97;;;17.80;99.90;;;;;;5053415;28;20619;-69
2021/07/25 04:16:59;;;;;;;10.13;8.43;;;17.80;99.90;;;;;;5053417;28;20623;-69
2021/07/25 04:19:27;;;;;;;8.93;7.87;;;17.80;99.90;;;;;;5053499;28;20625;-69
2021/07/25 04:22:01;;;;;;;13.20;8.63;;;17.80;99.90;;;;;;5053369;28;20625;-69
2021/07/25 04:24:27;;;;;;;8.83;7.97;;;17.70;99.90;;;;;;5053539;28;21134;-69
2021/07/25 04:26:53;;;;;;;11.90;8.90;;;17.60;99.90;;;;;;5053230;28;20650;-69
2021/07/25 04:29:20;;;;;;;9.50;8.80;;;17.60;99.90;;;;;;5053194;28;20594;-69
2021/07/25 04:31:47;;;;;;;9.80;8.87;;;17.60;99.90;;;;;;5053004;28;20613;-69
2021/07/25 04:34:13;;;;;;;9.70;8.33;;;17.50;99.90;;;;;;5052948;28;20602;-69
2021/07/25 04:36:42;;;;;;;9.43;8.33;;;17.50;99.90;;;;;;5053243;28;21053;-69
2021/07/25 04:39:10;;;;;;;10.57;9.50;;;17.60;99.90;;;;;;5053264;28;20642;-69
2021/07/25 04:41:44;;;;;;;15.00;9.10;;;17.60;99.90;;;;;;5053071;28;21220;-69
2021/07/25 04:44:20;;;;;;;9.60;8.30;;;17.60;99.90;;;;;;5053324;28;20585;-69
2021/07/25 04:46:51;;;;;;;9.80;9.00;;;17.70;99.90;;;;;;5052805;28;20595;-69
2021/07/25 04:49:19;;;;;;;9.70;8.70;;;17.80;99.90;;;;;;5052824;28;20642;-69
2021/07/25 04:51:47;;;;;;;9.70;8.77;;;17.90;99.90;;;;;;5035179;28;20637;-69
2021/07/25 04:54:16;;;;;;;8.70;8.00;;;18.10;99.90;;;;;;5054058;28;21122;-69
2021/07/25 04:56:57;;;;;;;11.90;7.80;;;18.20;99.90;;;;;;5056801;28;20615;-69
2021/07/25 04:59:31;;;;;;;8.03;7.10;;;18.30;99.90;;;;;;5056512;28;21169;-69
2021/07/25 05:02:06;;;;;;;9.30;8.17;;;18.50;99.90;;;;;;5056583;28;20599;-69
2021/07/25 05:04:33;;;;;;;11.13;8.43;;;18.50;99.90;;;;;;5056795;28;20628;-69
2021/07/25 05:07:00;;;;;;;7.90;7.20;;;18.50;99.90;;;;;;5056382;28;21185;-69
2021/07/25 05:09:27;;;;;;;10.63;8.10;;;18.50;99.90;;;;;;5056571;28;20656;-69
2021/07/25 05:12:00;;;;;;;8.53;7.50;;;18.40;99.90;;;;;;5056523;28;20599;-69
2021/07/25 05:14:34;;;;;;;7.57;6.90;;;18.50;99.90;;;;;;5056570;28;20586;-69
2021/07/25 05:17:14;;;;;;;7.53;6.83;;;18.70;99.90;;;;;;5056504;28;20606;-69
2021/07/25 05:20:17;;;;;;;8.63;7.70;;;18.90;99.90;;;;;;5049184;28;20637;-69
2021/07/25 05:22:59;;;;;;;10.80;7.80;;;18.80;99.90;;;;;;5053270;28;21199;-69
2021/07/25 05:25:28;;;;;;;7.33;6.47;;;18.90;99.90;;;;;;5055867;28;21144;-69
2021/07/25 05:27:54;;;;;;;8.00;7.30;;;18.90;99.90;;;;;;5055398;28;21099;-69
2021/07/25 05:30:23;;;;;;;14.20;7.90;;;19.00;99.90;;;;;;5052728;28;20620;-69
2021/07/25 05:32:50;;;;;;;14.50;7.30;;;19.00;99.90;;;;;;5046755;28;21179;-69
2021/07/25 05:35:17;;;;;;;7.53;6.83;;;19.10;99.90;;;;;;5055244;28;21009;-69
2021/07/25 05:37:45;;;;;;;9.50;7.27;;;19.00;99.90;;;;;;5055535;28;20979;-69
2021/07/25 05:40:15;;;;;;;8.00;7.30;;;18.90;99.90;;;;;;5055440;28;21254;-69
2021/07/25 05:42:42;;;;;;;11.10;7.80;;;19.00;99.90;;;;;;5055534;28;21154;-69
2021/07/25 05:45:11;;;;;;;8.93;7.40;;;19.00;99.90;;;;;;5055454;28;21145;-69
2021/07/25 05:47:38;;;;;;;9.53;8.57;;;18.90;99.90;;;;;;5055559;28;20666;-69
2021/07/25 05:50:05;;;;;;;8.53;7.80;;;18.90;99.90;;;;;;5055117;28;20647;-69
2021/07/25 05:52:52;;;;;;;10.60;8.30;;;18.80;99.90;;;;;;5055463;28;20951;-69
2021/07/25 05:55:29;;;;;;;7.93;7.13;;;18.80;99.90;;;;;;5055233;28;20618;-69
2021/07/25 05:57:55;;;;;;;8.70;7.67;;;18.80;99.90;;;;;;5050966;28;21164;-69
2021/07/25 06:00:22;;;;;;;12.83;9.10;;;18.90;99.90;;;;;;5054779;28;20615;-69
2021/07/25 06:02:53;;;;;;;10.83;7.50;;;19.00;99.90;;;;;;5055058;28;20638;-69
2021/07/25 06:05:20;;;;;;;9.47;7.80;;;19.00;99.90;;;;;;5054688;28;20615;-69
2021/07/25 06:07:47;;;;;;;9.17;8.27;;;19.10;99.90;;;;;;5054275;28;21041;-69
2021/07/25 06:10:13;;;;;;;9.10;8.20;;;18.90;99.90;;;;;;5054672;28;20615;-69
2021/07/25 06:12:40;;;;;;;9.17;7.80;;;18.90;99.90;;;;;;5054731;28;20637;-69
2021/07/25 06:15:07;;;;;;;10.60;8.00;;;19.30;99.90;;;;;;5054649;28;20626;-69
2021/07/25 06:17:35;;;;;;;7.93;7.17;;;19.40;99.90;;;;;;5054859;28;20631;-69
2021/07/25 06:20:01;;;;;;;8.03;7.33;;;19.60;99.90;;;;;;5054950;28;20990;-69
2021/07/25 06:22:49;;;;;;;8.93;7.27;;;19.60;99.90;;;;;;5054375;28;20611;-69
2021/07/25 06:25:21;;;;;;;8.00;7.30;;;19.50;99.90;;;;;;5054056;28;20631;-69
2021/07/25 06:27:52;;;;;;;7.63;7.03;;;19.50;99.90;;;;;;5054508;28;20647;-70
2021/07/25 06:30:20;;;;;;;8.43;7.63;;;19.70;99.90;;;;;;5054440;28;20611;-69
2021/07/25 06:33:08;;;;;;;9.10;6.83;;;19.60;99.90;;;;;;5060169;28;20983;-69
2021/07/25 06:35:37;;;;;;;7.50;6.80;;;19.60;99.90;;;;;;5074800;28;20740;-69
2021/07/25 06:38:13;;;;;;;6.57;5.87;;;19.80;99.90;;;;;;5074336;28;21010;-69
2021/07/25 06:40:48;;;;;;;6.73;6.10;;;20.00;99.90;;;;;;5074069;28;21017;-69
2021/07/25 06:43:15;;;;;;;8.73;6.73;;;20.10;99.90;;;;;;5074318;28;20614;-69
2021/07/25 06:45:42;;;;;;;7.27;6.67;;;20.20;99.90;;;;;;5074400;28;20630;-69
2021/07/25 06:48:22;;;;;;;7.70;6.87;;;20.30;99.90;;;;;;5074040;28;20677;-70
2021/07/25 06:50:50;;;;;;;8.93;6.77;;;20.60;99.90;;;;;;5073832;28;20622;-69
2021/07/25 06:53:19;;;;;;;9.40;5.93;;;20.40;99.90;;;;;;5072705;28;20618;-69
2021/07/25 06:55:47;;;;;;;7.17;6.47;;;20.10;99.90;;;;;;5074667;28;20657;-69
2021/07/25 06:58:14;;;;;;;6.80;6.20;;;20.20;99.90;;;;;;5073806;28;20722;-69
2021/07/25 07:00:40;;;;;;;7.47;6.00;;;20.40;99.90;;;;;;5074190;28;20637;-70
2021/07/25 07:03:06;;;;;;;6.63;6.03;;;20.70;99.90;;;;;;5073754;28;21156;-69
2021/07/25 07:05:34;;;;;;;6.40;5.90;;;20.80;99.90;;;;;;5074112;28;20618;-69
2021/07/25 07:08:03;;;;;;;7.73;5.80;;;20.90;99.90;;;;;;5073778;28;21200;-69
2021/07/25 07:10:32;;;;;;;6.37;5.87;;;21.20;99.90;;;;;;5059607;28;20618;-69
2021/07/25 07:13:00;;;;;;;6.80;6.30;;;21.20;99.90;;;;;;5054326;28;20611;-69
2021/07/25 07:15:27;;;;;;;7.90;6.33;;;21.10;99.90;;;;;;5054226;28;20614;-70
2021/07/25 07:17:55;;;;;;;5.07;4.67;;;21.10;99.90;;;;;;5053103;28;20704;-70
2021/07/25 07:20:22;;;;;;;6.03;5.17;;;21.30;99.90;;;;;;5054061;28;20595;-69
2021/07/25 07:23:00;;;;;;;5.37;4.87;;;21.20;99.90;;;;;;5053974;28;20599;-69
2021/07/25 07:25:29;;;;;;;6.00;5.40;;;21.20;99.90;;;;;;5053845;28;20971;-69
2021/07/25 07:27:56;;;;;;;8.23;4.77;;;21.40;99.90;;;;;;5053937;28;20634;-69
2021/07/25 07:30:22;;;;;;;5.00;4.70;;;21.50;99.90;;;;;;5053903;28;20611;-69
2021/07/25 07:32:49;;;;;;;5.60;5.10;;;21.40;99.90;;;;;;5054007;28;21136;-69
2021/07/25 07:35:20;;;;;;;5.40;4.67;;;21.30;99.90;;;;;;5053963;28;20611;-69
2021/07/25 07:37:49;;;;;;;6.60;4.60;;;21.50;99.90;;;;;;5054169;28;20629;-69
2021/07/25 07:40:16;;;;;;;5.40;4.50;;;21.70;99.90;;;;;;5053972;28;20645;-69
2021/07/25 07:42:42;;;;;;;4.73;4.43;;;21.70;99.90;;;;;;5053637;28;20633;-69
2021/07/25 07:45:09;;;;;;;5.50;5.00;;;21.70;99.90;;;;;;5053628;28;20958;-69
2021/07/25 07:47:35;;;;;;;5.40;4.97;;;21.50;99.90;;;;;;5053522;28;20647;-70
2021/07/25 07:50:02;;;;;;;4.87;4.27;;;21.70;99.90;;;;;;5053790;28;20641;-69
2021/07/25 07:52:29;;;;;;;4.70;4.23;;;21.80;99.90;;;;;;5053492;28;21150;-69
2021/07/25 07:54:55;;;;;;;5.30;4.80;;;21.80;99.90;;;;;;5053432;28;20603;-69
2021/07/25 07:57:21;;;;;;;5.37;4.47;;;22.00;99.90;;;;;;5053467;28;21164;-68
2021/07/25 07:59:48;;;;;;;4.70;4.40;;;22.10;99.90;;;;;;5053442;28;20678;-68
2021/07/25 08:02:16;;;;;;;5.33;4.83;;;22.10;99.90;;;;;;5053641;28;20627;-68
2021/07/25 08:04:42;;;;;;;5.23;4.60;;;22.10;99.90;;;;;;5052983;28;20620;-68
2021/07/25 08:07:08;;;;;;;4.57;4.00;;;22.10;99.90;;;;;;5053164;28;20609;-68
2021/07/25 08:09:35;;;;;;;5.03;4.67;;;22.20;99.90;;;;;;5051992;28;20979;-68
2021/07/25 08:12:02;;;;;;;4.63;4.23;;;22.30;99.90;;;;;;5053287;28;20591;-68
2021/07/25 08:14:28;;;;;;;5.00;4.60;;;22.40;99.90;;;;;;5053214;28;20593;-68
2021/07/25 08:16:55;;;;;;;8.10;4.50;;;22.40;99.90;;;;;;5053077;28;20595;-68
2021/07/25 08:19:21;;;;;;;4.43;4.13;;;22.40;99.90;;;;;;5051900;28;20637;-68
2021/07/25 08:21:47;;;;;;;5.33;4.47;;;22.40;99.90;;;;;;5053466;28;20627;-69
2021/07/25 08:24:14;;;;;;;5.60;4.50;;;22.50;99.90;;;;;;5053010;28;20599;-69
2021/07/25 08:26:40;;;;;;;5.27;4.30;;;22.40;99.90;;;;;;5053476;28;20650;-69
2021/07/25 08:29:07;;;;;;;9.50;4.60;;;22.70;99.90;;;;;;5053915;28;20655;-69
2021/07/25 08:31:33;;;;;;;6.30;4.90;;;22.90;99.90;;;;;;5057267;28;21117;-69
2021/07/25 08:33:59;;;;;;;4.40;4.10;;;22.90;99.90;;;;;;5057119;28;20590;-69
2021/07/25 08:36:26;;;;;;;5.77;4.13;;;23.00;99.90;;;;;;5057401;28;20907;-68
2021/07/25 08:38:52;;;;;;;6.83;4.37;;;22.90;99.90;;;;;;5057094;28;20641;-69
2021/07/25 08:41:36;;;;;;;4.67;4.27;;;22.80;99.90;;;;;;5057133;28;20630;-69
2021/07/25 08:44:36;;;;;;;4.30;3.97;;;22.70;99.90;;;;;;5057044;28;20622;-69
2021/07/25 08:47:15;;;;;;;5.10;4.60;;;22.60;99.90;;;;;;5054375;28;21208;-69
2021/07/25 08:49:51;;;;;;;4.97;4.53;;;22.60;99.90;;;;;;5056928;28;20649;-69
2021/07/25 08:52:31;;;;;;;4.60;4.30;;;22.70;99.90;;;;;;5056686;28;20582;-69
2021/07/25 08:55:00;;;;;;;5.07;4.67;;;23.20;99.90;;;;;;5056970;28;20615;-69
2021/07/25 08:57:32;;;;;;;6.23;4.47;;;23.80;99.90;;;;;;5056824;28;20614;-69
2021/07/25 08:59:59;;;;;;;5.10;4.60;;;23.90;99.90;;;;;;5056586;28;20607;-69
2021/07/25 09:02:27;;;;;;;4.83;4.47;;;23.20;99.90;;;;;;5057192;28;21130;-70
2021/07/25 09:04:57;;;;;;;5.27;4.40;;;23.70;99.90;;;;;;5056848;28;20599;-69
2021/07/25 09:07:25;;;;;;;5.27;4.10;;;23.70;99.90;;;;;;5056275;28;20966;-69
2021/07/25 09:09:58;;;;;;;4.53;4.23;;;23.60;99.90;;;;;;5056802;28;20606;-69
2021/07/25 09:12:25;;;;;;;4.40;4.10;;;23.10;99.90;;;;;;5056458;28;20560;-69
2021/07/25 09:14:55;;;;;;;4.80;3.87;;;23.40;99.90;;;;;;5056251;28;20591;-69
2021/07/25 09:17:22;;;;;;;6.73;3.80;;;23.60;99.90;;;;;;5056586;28;20626;-67
2021/07/25 09:20:10;;;;;;;4.70;4.30;;;23.90;99.90;;;;;;5056699;28;20623;-69
2021/07/25 09:22:38;;;;;;;5.60;4.37;;;23.90;99.90;;;;;;5056477;28;21168;-69
2021/07/25 09:25:05;;;;;;;4.43;4.13;;;24.10;99.90;;;;;;5056487;28;20607;-69
2021/07/25 09:27:32;;;;;;;4.73;4.10;;;24.20;99.90;;;;;;5056310;28;20660;-69
2021/07/25 09:30:18;;;;;;;4.63;3.83;;;24.10;99.90;;;;;;5056017;28;20603;-68
2021/07/25 09:32:45;;;;;;;4.30;3.50;;;23.70;99.90;;;;;;5055940;28;20579;-68
2021/07/25 09:35:36;;;;;;;3.80;3.57;;;24.00;94.00;;;;;;5056496;28;20615;-68
2021/07/25 09:38:05;;;;;;;3.70;3.40;;;24.00;99.90;;;;;;5056387;28;20626;-68
2021/07/25 09:40:34;;;;;;;4.53;3.50;;;24.30;91.30;;;;;;5055065;28;20662;-68
2021/07/25 09:43:09;;;;;;;3.43;3.20;;;24.60;52.60;;;;;;5055680;28;20599;-68
2021/07/25 09:45:54;;;;;;;4.53;3.13;;;24.70;34.50;;;;;;5055008;28;20606;-68
2021/07/25 09:48:23;;;;;;;6.03;3.50;;;24.40;57.10;;;;;;5056111;28;21245;-68
2021/07/25 09:50:51;;;;;;;3.90;3.53;;;24.10;99.90;;;;;;5056191;28;21093;-68
2021/07/25 09:53:18;;;;;;;3.87;3.57;;;24.10;98.70;;;;;;5056278;28;20622;-68
2021/07/25 09:55:45;;;;;;;4.47;3.30;;;24.30;39.30;;;;;;5055504;28;20619;-68
2021/07/25 09:58:12;;;;;;;4.63;3.60;;;24.60;44.10;;;;;;5055646;28;20971;-69
2021/07/25 10:00:44;;;;;;;3.90;3.50;;;24.90;24.30;;;;;;5055800;28;20621;-68
2021/07/25 10:03:21;;;;;;;3.73;3.33;;;25.20;1.30;;;;;;5056071;28;20589;-69
2021/07/25 10:05:48;;;;;;;3.27;3.07;;;25.20;24.80;;;;;;5055518;28;20626;-68
2021/07/25 10:08:24;;;;;;;5.47;3.70;;;24.80;1.00;;;;;;5055384;28;20658;-69
2021/07/25 10:10:52;;;;;;;3.97;3.67;;;24.70;23.60;;;;;;5055444;28;20555;-69
2021/07/25 10:13:20;;;;;;;3.57;3.30;;;25.20;1.00;;;;;;5055601;28;20969;-69
2021/07/25 10:15:52;;;;;;;4.87;3.00;;;25.50;1.00;;;;;;5054972;28;20626;-69
2021/07/25 10:18:21;;;;;;;3.47;3.00;;;25.70;1.00;;;;;;5055506;28;20920;-69
2021/07/25 10:20:54;;;;;;;4.47;4.00;;;25.40;1.00;;;;;;5054850;28;20630;-69
2021/07/25 10:23:27;;;;;;;5.50;3.20;;;25.00;1.00;;;;;;5055474;28;20599;-69
2021/07/25 10:25:55;;;;;;;4.20;2.83;;;25.20;16.30;;;;;;5054160;28;20585;-69
2021/07/25 10:28:23;;;;;;;3.93;3.63;;;25.40;10.70;;;;;;5055232;28;20665;-69
2021/07/25 10:30:50;;;;;;;5.90;4.70;;;26.10;1.00;;;;;;5055095;28;20969;-69
2021/07/25 10:33:17;;;;;;;4.10;3.70;;;25.90;1.00;;;;;;5054934;28;20633;-69
2021/07/25 10:35:45;;;;;;;3.57;3.17;;;25.40;1.00;;;;;;5055125;28;20615;-69
2021/07/25 10:38:11;;;;;;;3.50;3.20;;;25.70;1.00;;;;;;5054963;28;20602;-69
2021/07/25 10:40:39;;;;;;;3.03;2.83;;;25.80;1.00;;;;;;5055083;28;20997;-69
2021/07/25 10:43:07;;;;;;;3.70;3.40;;;26.30;1.00;;;;;;5055008;28;20627;-69
2021/07/25 10:45:35;;;;;;;4.17;3.60;;;26.70;1.00;;;;;;5054688;28;20634;-69
2021/07/25 10:48:18;;;;;;;4.30;3.27;;;26.10;1.00;;;;;;5054497;28;20669;-69
2021/07/25 10:50:44;;;;;;;3.50;3.13;;;26.50;1.00;;;;;;5054840;28;20611;-69
2021/07/25 10:53:22;;;;;;;3.20;2.90;;;26.60;1.00;;;;;;5054272;28;20606;-69
2021/07/25 10:55:49;;;;;;;5.10;2.97;;;27.20;1.00;;;;;;5054855;28;20623;-69
2021/07/25 10:58:18;;;;;;;3.63;3.33;;;26.90;1.00;;;;;;5054644;28;20639;-69
2021/07/25 11:00:49;;;;;;;3.67;3.37;;;26.60;1.00;;;;;;5054259;28;21164;-69
2021/07/25 11:03:25;;;;;;;3.43;3.23;;;26.30;1.00;;;;;;5054469;28;20970;-69
2021/07/25 11:06:11;;;;;;;3.60;3.40;;;27.00;1.00;;;;;;5054724;28;20625;-69
2021/07/25 11:08:41;;;;;;;3.27;3.07;;;27.40;1.00;;;;;;5054337;28;20610;-69
2021/07/25 11:11:35;;;;;;;3.80;3.50;;;26.40;1.00;;;;;;5054384;28;20614;-69
2021/07/25 11:14:02;;;;;;;3.83;3.13;;;26.60;1.00;;;;;;5054688;28;20621;-70
2021/07/25 11:16:32;;;;;;;3.87;3.27;;;26.60;1.00;;;;;;5054359;28;20633;-69
2021/07/25 11:19:18;;;;;;;3.97;3.00;;;26.90;1.00;;;;;;5054228;28;20619;-69
2021/07/25 11:21:44;;;;;;;3.17;2.80;;;27.10;1.00;;;;;;5053884;28;20626;-69
2021/07/25 11:24:23;;;;;;;3.30;2.63;;;26.70;1.00;;;;;;5053992;28;20595;-69
2021/07/25 11:26:51;;;;;;;3.37;2.50;;;27.50;1.00;;;;;;5053821;28;20595;-69
2021/07/25 11:29:39;;;;;;;3.47;3.13;;;27.50;1.00;;;;;;5053825;28;21181;-70
2021/07/25 11:32:37;;;;;;;7.57;3.50;;;28.10;1.00;;;;;;5053808;28;20619;-70
2021/07/25 11:35:06;;;;;;;3.60;3.10;;;28.30;1.00;;;;;;5054079;28;20674;-70
2021/07/25 11:37:42;;;;;;;3.43;3.13;;;28.80;1.00;;;;;;5054006;28;20606;-70
2021/07/25 11:40:09;;;;;;;2.97;2.80;;;29.20;1.00;;;;;;5053829;28;20618;-69
2021/07/25 11:42:36;;;;;;;6.57;2.43;;;30.00;1.00;;;;;;5053697;28;21145;-68
2021/07/25 11:45:06;;;;;;;3.33;3.03;;;30.40;1.00;;;;;;5054090;28;20623;-69
2021/07/25 11:47:33;;;;;;;2.53;2.43;;;29.90;1.00;;;;;;5053996;28;20999;-70
2021/07/25 11:49:59;;;;;;;3.17;2.87;;;29.60;1.00;;;;;;5053325;28;20674;-69
2021/07/25 11:52:27;;;;;;;2.80;2.60;;;29.20;1.00;;;;;;5053683;28;20630;-70
2021/07/25 11:54:53;;;;;;;3.53;2.60;;;29.20;1.00;;;;;;5053450;28;20599;-68
2021/07/25 11:57:25;;;;;;;4.87;3.07;;;30.00;1.00;;;;;;5052487;28;20622;-68
2021/07/25 11:59:53;;;;;;;8.03;3.33;;;29.80;1.00;;;;;;5053428;28;20606;-68
2021/07/25 12:02:27;;;;;;;4.23;2.67;;;28.90;1.00;;;;;;5053822;28;20971;-69
2021/07/25 12:04:55;;;;;;;3.87;2.97;;;30.30;28.00;;;;;;5052775;28;20606;-69
2021/07/25 12:07:29;;;;;;;3.23;3.03;;;31.40;99.90;;;;;;5053165;28;20954;-69
2021/07/25 12:09:56;;;;;;;2.70;2.47;;;30.70;99.90;;;;;;5053419;28;20627;-69
2021/07/25 12:12:26;;;;;;;2.70;2.60;;;30.30;99.90;;;;;;5053598;28;20626;-69
2021/07/25 12:14:55;;;;;;;2.43;2.30;;;30.60;99.90;;;;;;5052322;28;20980;-69
2021/07/25 12:17:52;;;;;;;2.60;2.50;;;30.90;99.90;;;;;;5053345;28;20641;-68
2021/07/25 12:20:28;;;;;;;2.60;2.40;;;30.30;99.90;;;;;;5053233;28;20583;-69
2021/07/25 12:23:03;;;;;;;2.70;2.60;;;30.30;99.90;;;;;;5053480;28;20571;-69
2021/07/25 12:25:36;;;;;;;3.83;3.03;;;30.00;99.90;;;;;;5052963;28;20571;-68
2021/07/25 12:28:03;;;;;;;2.70;2.60;;;29.50;99.90;;;;;;5054485;28;20611;-69
2021/07/25 12:31:09;;;;;;;2.83;2.73;;;30.30;99.90;;;;;;5053015;28;20599;-69
2021/07/25 12:33:35;;;;;;;3.00;2.80;;;29.80;99.90;;;;;;5048644;28;20635;-70
2021/07/25 12:36:20;;;;;;;3.40;2.90;;;31.10;99.90;;;;;;5052226;28;20619;-69
2021/07/25 12:38:46;;;;;;;2.90;2.70;;;29.70;99.90;;;;;;5053241;28;20634;-69
2021/07/25 12:41:12;;;;;;;2.57;2.43;;;29.70;99.90;;;;;;5053502;28;20610;-69
2021/07/25 12:43:39;;;;;;;2.70;2.50;;;30.80;99.90;;;;;;5053112;28;20619;-70
2021/07/25 12:46:06;;;;;;;3.53;3.33;;;31.50;99.90;;;;;;5053145;28;20625;-70
2021/07/25 12:48:34;;;;;;;2.63;2.43;;;30.20;99.90;;;;;;5053205;28;20658;-70
2021/07/25 12:53:35;;;;;;;2.77;2.67;;;30.60;99.90;;;;;;5052818;28;20583;-69
2021/07/25 12:56:16;;;;;;;3.20;3.00;;;31.40;99.90;;;;;;5053234;28;20615;-69
2021/07/25 12:58:49;;;;;;;3.40;3.13;;;31.20;99.90;;;;;;5052540;28;20631;-70